sensor_id;sensor_type;location;lat;lon;timestamp;pressure;altitude;pressure_sealevel;temperature;humidity
51287;BME280;37364;46.974;18.916;2022-07-31T00:00:51;154924.78;;;18.13;100.00
51287;BME280;37364;46.974;18.916;2022-07-31T00:03:27;154901.41;;;18.04;100.00
51287;BME280;37364;46.974;18.916;2022-07-31T00:05:58;154881.88;;;17.96;100.00
51287;BME280;37364;46.974;18.916;2022-07-31T00:08:29;154894.84;;;18.01;100.00
51287;BME280;37364;46.974;18.916;2022-07-31T00:11:00;154889.66;;;17.99;100.00
51287;BME280;37364;46.974;18.916;2022-07-31T00:13:30;154900.06;;;18.03;100.00
51287;BME280;37364;46.974;18.916;2022-07-31T00:16:21;154893.56;;;18.01;100.00
51287;BME280;37364;46.974;18.916;2022-07-31T00:18:54;154897.47;;;18.02;100.00
51287;BME280;37364;46.974;18.916;2022-07-31T00:21:25;154866.28;;;17.90;100.00
51287;BME280;37364;46.974;18.916;2022-07-31T00:23:56;154872.75;;;17.92;100.00
51287;BME280;37364;46.974;18.916;2022-07-31T00:26:26;154883.16;;;17.96;100.00
51287;BME280;37364;46.974;18.916;2022-07-31T00:28:57;154864.94;;;17.89;100.00
51287;BME280;37364;46.974;18.916;2022-07-31T00:31:27;154868.84;;;17.91;100.00
51287;BME280;37364;46.974;18.916;2022-07-31T00:34:03;154874.03;;;17.93;100.00
51287;BME280;37364;46.974;18.916;2022-07-31T00:36:34;154892.28;;;18.00;99.96
51287;BME280;37364;46.974;18.916;2022-07-31T00:39:05;154870.13;;;17.91;100.00
51287;BME280;37364;46.974;18.916;2022-07-31T00:41:37;154855.88;;;17.86;100.00
51287;BME280;37364;46.974;18.916;2022-07-31T00:44:08;154846.69;;;17.82;100.00
51287;BME280;37364;46.974;18.916;2022-07-31T00:46:39;154841.50;;;17.80;100.00
51287;BME280;37364;46.974;18.916;2022-07-31T00:49:14;154833.66;;;17.77;100.00
51287;BME280;37364;46.974;18.916;2022-07-31T00:51:45;154849.28;;;17.83;100.00
51287;BME280;37364;46.974;18.916;2022-07-31T00:54:15;154834.97;;;17.77;100.00
51287;BME280;37364;46.974;18.916;2022-07-31T00:56:49;154857.16;;;17.86;100.00
51287;BME280;37364;46.974;18.916;2022-07-31T00:59:20;154868.84;;;17.91;100.00
51287;BME280;37364;46.974;18.916;2022-07-31T01:01:51;154874.03;;;17.93;100.00
51287;BME280;37364;46.974;18.916;2022-07-31T01:04:25;154898.78;;;18.03;100.00
51287;BME280;37364;46.974;18.916;2022-07-31T01:06:57;154887.06;;;17.98;100.00
51287;BME280;37364;46.974;18.916;2022-07-31T01:09:29;154897.47;;;18.02;99.96
51287;BME280;37364;46.974;18.916;2022-07-31T01:12:02;154900.06;;;18.03;100.00
51287;BME280;37364;46.974;18.916;2022-07-31T01:14:39;154902.69;;;18.04;100.00
51287;BME280;37364;46.974;18.916;2022-07-31T01:17:11;154905.25;;;18.05;99.89
51287;BME280;37364;46.974;18.916;2022-07-31T01:19:47;154933.91;;;18.16;99.07
51287;BME280;37364;46.974;18.916;2022-07-31T01:22:34;154950.84;;;18.23;98.47
51287;BME280;37364;46.974;18.916;2022-07-31T01:25:14;154956.06;;;18.25;98.49
51287;BME280;37364;46.974;18.916;2022-07-31T01:28:21;154932.63;;;18.16;98.96
51287;BME280;37364;46.974;18.916;2022-07-31T01:31:01;154926.13;;;18.13;98.47
51287;BME280;37364;46.974;18.916;2022-07-31T01:34:01;154903.97;;;18.05;99.78
51287;BME280;37364;46.974;18.916;2022-07-31T01:36:36;154910.50;;;18.07;99.12
51287;BME280;37364;46.974;18.916;2022-07-31T01:39:09;154902.69;;;18.04;100.00
51287;BME280;37364;46.974;18.916;2022-07-31T01:41:42;154891.00;;;18.00;100.00
51287;BME280;37364;46.974;18.916;2022-07-31T01:44:16;154888.38;;;17.98;99.39
51287;BME280;37364;46.974;18.916;2022-07-31T01:46:51;154876.69;;;17.94;100.00
51287;BME280;37364;46.974;18.916;2022-07-31T01:49:24;154870.13;;;17.91;100.00
51287;BME280;37364;46.974;18.916;2022-07-31T01:51:57;154891.00;;;18.00;99.57
51287;BME280;37364;46.974;18.916;2022-07-31T01:54:32;154905.25;;;18.05;99.50
51287;BME280;37364;46.974;18.916;2022-07-31T01:57:05;154922.22;;;18.12;99.63
51287;BME280;37364;46.974;18.916;2022-07-31T01:59:47;154926.13;;;18.13;99.46
51287;BME280;37364;46.974;18.916;2022-07-31T02:02:42;154914.38;;;18.09;98.77
51287;BME280;37364;46.974;18.916;2022-07-31T02:05:15;154930.00;;;18.15;98.99
51287;BME280;37364;46.974;18.916;2022-07-31T02:07:48;154909.19;;;18.07;99.52
51287;BME280;37364;46.974;18.916;2022-07-31T02:10:23;154898.78;;;18.03;99.44
51287;BME280;37364;46.974;18.916;2022-07-31T02:12:55;154891.00;;;18.00;99.68
51287;BME280;37364;46.974;18.916;2022-07-31T02:15:30;154867.56;;;17.90;99.83
51287;BME280;37364;46.974;18.916;2022-07-31T02:18:05;154879.25;;;17.95;99.79
51287;BME280;37364;46.974;18.916;2022-07-31T02:20:37;154881.88;;;17.96;98.80
51287;BME280;37364;46.974;18.916;2022-07-31T02:23:09;154875.34;;;17.93;98.68
51287;BME280;37364;46.974;18.916;2022-07-31T02:25:40;154866.28;;;17.90;99.03
51287;BME280;37364;46.974;18.916;2022-07-31T02:28:13;154884.44;;;17.97;98.22
51287;BME280;37364;46.974;18.916;2022-07-31T02:30:47;154900.06;;;18.03;97.48
51287;BME280;37364;46.974;18.916;2022-07-31T02:33:24;154900.06;;;18.03;97.53
51287;BME280;37364;46.974;18.916;2022-07-31T02:35:55;154894.84;;;18.01;97.20
51287;BME280;37364;46.974;18.916;2022-07-31T02:38:29;154892.28;;;18.00;97.12
51287;BME280;37364;46.974;18.916;2022-07-31T02:41:02;154894.84;;;18.01;97.20
51287;BME280;37364;46.974;18.916;2022-07-31T02:43:34;154889.66;;;17.99;96.96
51287;BME280;37364;46.974;18.916;2022-07-31T02:46:14;154900.06;;;18.03;97.12
51287;BME280;37364;46.974;18.916;2022-07-31T02:48:49;154910.50;;;18.07;96.56
51287;BME280;37364;46.974;18.916;2022-07-31T02:51:22;154923.50;;;18.12;95.90
51287;BME280;37364;46.974;18.916;2022-07-31T02:53:53;154900.06;;;18.03;96.44
51287;BME280;37364;46.974;18.916;2022-07-31T02:56:27;154893.56;;;18.01;96.84
51287;BME280;37364;46.974;18.916;2022-07-31T02:58:58;154879.25;;;17.95;97.23
51287;BME280;37364;46.974;18.916;2022-07-31T03:01:42;154887.06;;;17.98;96.16
51287;BME280;37364;46.974;18.916;2022-07-31T03:04:16;154891.00;;;18.00;96.53
51287;BME280;37364;46.974;18.916;2022-07-31T03:06:46;154883.16;;;17.96;96.37
51287;BME280;37364;46.974;18.916;2022-07-31T03:09:17;154868.84;;;17.91;96.93
51287;BME280;37364;46.974;18.916;2022-07-31T03:11:56;154859.72;;;17.87;96.95
51287;BME280;37364;46.974;18.916;2022-07-31T03:14:31;154853.25;;;17.85;96.93
51287;BME280;37364;46.974;18.916;2022-07-31T03:17:03;154832.38;;;17.76;97.31
51287;BME280;37364;46.974;18.916;2022-07-31T03:19:38;154850.63;;;17.84;96.62
51287;BME280;37364;46.974;18.916;2022-07-31T03:22:09;154837.59;;;17.78;96.88
51287;BME280;37364;46.974;18.916;2022-07-31T03:24:41;154829.75;;;17.75;97.02
51287;BME280;37364;46.974;18.916;2022-07-31T03:27:12;154837.59;;;17.78;96.50
51287;BME280;37364;46.974;18.916;2022-07-31T03:29:43;154825.91;;;17.74;96.77
51287;BME280;37364;46.974;18.916;2022-07-31T03:32:13;154824.56;;;17.73;96.84
51287;BME280;37364;46.974;18.916;2022-07-31T03:34:47;154832.38;;;17.76;96.53
51287;BME280;37364;46.974;18.916;2022-07-31T03:37:18;154838.88;;;17.79;96.17
51287;BME280;37364;46.974;18.916;2022-07-31T03:39:48;154829.75;;;17.75;96.66
51287;BME280;37364;46.974;18.916;2022-07-31T03:42:19;154840.16;;;17.79;96.33
51287;BME280;37364;46.974;18.916;2022-07-31T03:44:49;154818.06;;;17.71;97.42
51287;BME280;37364;46.974;18.916;2022-07-31T03:47:21;154831.09;;;17.76;96.77
51287;BME280;37364;46.974;18.916;2022-07-31T03:49:56;154849.28;;;17.83;96.45
51287;BME280;37364;46.974;18.916;2022-07-31T03:52:28;154844.06;;;17.81;96.33
51287;BME280;37364;46.974;18.916;2022-07-31T03:55:00;154871.47;;;17.92;96.11
51287;BME280;37364;46.974;18.916;2022-07-31T03:57:31;154857.16;;;17.86;96.07
51287;BME280;37364;46.974;18.916;2022-07-31T04:00:04;154879.25;;;17.95;95.85
51287;BME280;37364;46.974;18.916;2022-07-31T04:02:43;154888.38;;;17.98;95.57
51287;BME280;37364;46.974;18.916;2022-07-31T04:05:38;154868.84;;;17.91;96.18
51287;BME280;37364;46.974;18.916;2022-07-31T04:08:10;154866.28;;;17.90;96.64
51287;BME280;37364;46.974;18.916;2022-07-31T04:10:43;154855.88;;;17.86;96.97
51287;BME280;37364;46.974;18.916;2022-07-31T04:13:17;154868.84;;;17.91;96.41
51287;BME280;37364;46.974;18.916;2022-07-31T04:15:48;154898.78;;;18.03;95.87
51287;BME280;37364;46.974;18.916;2022-07-31T04:18:19;154914.38;;;18.09;94.62
51287;BME280;37364;46.974;18.916;2022-07-31T04:20:53;154922.22;;;18.12;94.67
51287;BME280;37364;46.974;18.916;2022-07-31T04:23:23;154928.69;;;18.14;94.76
51287;BME280;37364;46.974;18.916;2022-07-31T04:26:17;154974.25;;;18.32;92.36
51287;BME280;37364;46.974;18.916;2022-07-31T04:29:01;154993.75;;;18.40;92.13
51287;BME280;37364;46.974;18.916;2022-07-31T04:31:32;154980.78;;;18.35;91.79
51287;BME280;37364;46.974;18.916;2022-07-31T04:34:06;155006.81;;;18.45;92.24
51287;BME280;37364;46.974;18.916;2022-07-31T04:36:40;154988.56;;;18.38;91.88
51287;BME280;37364;46.974;18.916;2022-07-31T04:39:11;154978.16;;;18.34;92.37
51287;BME280;37364;46.974;18.916;2022-07-31T04:41:41;154986.00;;;18.37;91.34
51287;BME280;37364;46.974;18.916;2022-07-31T04:44:11;154979.44;;;18.34;91.00
51287;BME280;37364;46.974;18.916;2022-07-31T04:46:50;154975.56;;;18.33;90.92
51287;BME280;37364;46.974;18.916;2022-07-31T04:49:21;154966.47;;;18.29;90.99
51287;BME280;37364;46.974;18.916;2022-07-31T04:51:54;154966.47;;;18.29;90.72
51287;BME280;37364;46.974;18.916;2022-07-31T04:54:25;154979.44;;;18.34;90.35
51287;BME280;37364;46.974;18.916;2022-07-31T04:56:57;154988.56;;;18.38;89.89
51287;BME280;37364;46.974;18.916;2022-07-31T04:59:28;154996.41;;;18.41;89.92
51287;BME280;37364;46.974;18.916;2022-07-31T05:02:19;155009.38;;;18.46;90.34
51287;BME280;37364;46.974;18.916;2022-07-31T05:04:51;154998.97;;;18.42;90.18
51287;BME280;37364;46.974;18.916;2022-07-31T05:07:30;154989.91;;;18.38;90.64
51287;BME280;37364;46.974;18.916;2022-07-31T05:10:08;155017.22;;;18.49;90.39
51287;BME280;37364;46.974;18.916;2022-07-31T05:12:59;154998.97;;;18.42;90.22
51287;BME280;37364;46.974;18.916;2022-07-31T05:15:32;155022.41;;;18.51;89.70
51287;BME280;37364;46.974;18.916;2022-07-31T05:18:04;155015.91;;;18.49;89.19
51287;BME280;37364;46.974;18.916;2022-07-31T05:20:54;154991.19;;;18.39;89.45
51287;BME280;37364;46.974;18.916;2022-07-31T05:23:40;154983.34;;;18.36;90.10
51287;BME280;37364;46.974;18.916;2022-07-31T05:26:17;155008.09;;;18.46;90.16
51287;BME280;37364;46.974;18.916;2022-07-31T05:28:48;154972.94;;;18.32;90.38
51287;BME280;37364;46.974;18.916;2022-07-31T05:31:24;154980.78;;;18.35;91.08
51287;BME280;37364;46.974;18.916;2022-07-31T05:33:55;154971.66;;;18.31;90.10
51287;BME280;37364;46.974;18.916;2022-07-31T05:36:27;154970.38;;;18.31;90.71
51287;BME280;37364;46.974;18.916;2022-07-31T05:39:00;154998.97;;;18.42;90.66
51287;BME280;37364;46.974;18.916;2022-07-31T05:41:40;154993.75;;;18.40;91.18
51287;BME280;37364;46.974;18.916;2022-07-31T05:44:36;155004.19;;;18.44;91.48
51287;BME280;37364;46.974;18.916;2022-07-31T05:47:07;155026.34;;;18.53;91.07
51287;BME280;37364;46.974;18.916;2022-07-31T05:49:38;154971.66;;;18.31;91.79
51287;BME280;37364;46.974;18.916;2022-07-31T05:52:08;155008.09;;;18.46;91.74
51287;BME280;37364;46.974;18.916;2022-07-31T05:54:41;154963.84;;;18.28;91.56
51287;BME280;37364;46.974;18.916;2022-07-31T05:57:36;154991.19;;;18.39;91.38
51287;BME280;37364;46.974;18.916;2022-07-31T06:00:08;155062.75;;;18.67;91.32
51287;BME280;37364;46.974;18.916;2022-07-31T06:02:42;155134.44;;;18.95;89.46
51287;BME280;37364;46.974;18.916;2022-07-31T06:05:31;155256.81;;;19.44;86.25
51287;BME280;37364;46.974;18.916;2022-07-31T06:08:02;155384.53;;;19.94;84.60
51287;BME280;37364;46.974;18.916;2022-07-31T06:10:42;155535.66;;;20.53;81.69
51287;BME280;37364;46.974;18.916;2022-07-31T06:13:12;155410.56;;;20.04;82.02
51287;BME280;37364;46.974;18.916;2022-07-31T06:15:43;155452.25;;;20.21;81.16
51287;BME280;37364;46.974;18.916;2022-07-31T06:18:16;155526.53;;;20.50;80.85
51287;BME280;37364;46.974;18.916;2022-07-31T06:20:47;155543.50;;;20.57;79.72
51287;BME280;37364;46.974;18.916;2022-07-31T06:23:17;155440.53;;;20.16;81.50
51287;BME280;37364;46.974;18.916;2022-07-31T06:26:19;155535.66;;;20.53;81.81
51287;BME280;37364;46.974;18.916;2022-07-31T06:28:52;155448.38;;;20.19;81.17
51287;BME280;37364;46.974;18.916;2022-07-31T06:31:24;155385.81;;;19.94;81.54
51287;BME280;37364;46.974;18.916;2022-07-31T06:33:57;155388.44;;;19.95;82.42
51287;BME280;37364;46.974;18.916;2022-07-31T06:36:36;155388.44;;;19.95;82.57
51287;BME280;37364;46.974;18.916;2022-07-31T06:39:10;155290.69;;;19.57;83.64
51287;BME280;37364;46.974;18.916;2022-07-31T06:41:44;155319.34;;;19.68;83.92
51287;BME280;37364;46.974;18.916;2022-07-31T06:44:39;155246.41;;;19.40;83.59
51287;BME280;37364;46.974;18.916;2022-07-31T06:47:30;155312.81;;;19.66;83.35
51287;BME280;37364;46.974;18.916;2022-07-31T06:50:16;155350.66;;;19.81;83.27
51287;BME280;37364;46.974;18.916;2022-07-31T06:52:54;155321.94;;;19.69;83.24
51287;BME280;37364;46.974;18.916;2022-07-31T06:55:24;155443.16;;;20.17;80.96
51287;BME280;37364;46.974;18.916;2022-07-31T06:57:58;155593.09;;;20.76;79.58
51287;BME280;37364;46.974;18.916;2022-07-31T07:00:31;155683.03;;;21.11;76.84
51287;BME280;37364;46.974;18.916;2022-07-31T07:03:02;155647.81;;;20.98;76.88
51287;BME280;37364;46.974;18.916;2022-07-31T07:05:32;155561.75;;;20.64;79.06
51287;BME280;37364;46.974;18.916;2022-07-31T07:08:04;155540.88;;;20.55;79.41
51287;BME280;37364;46.974;18.916;2022-07-31T07:10:34;155548.72;;;20.59;78.77
51287;BME280;37364;46.974;18.916;2022-07-31T07:13:20;155634.78;;;20.92;78.48
51287;BME280;37364;46.974;18.916;2022-07-31T07:16:13;155763.91;;;21.43;78.31
51287;BME280;37364;46.974;18.916;2022-07-31T07:18:44;155683.03;;;21.11;78.44
51287;BME280;37364;46.974;18.916;2022-07-31T07:21:15;155504.41;;;20.41;78.10
51287;BME280;37364;46.974;18.916;2022-07-31T07:23:46;155559.19;;;20.63;78.61
51287;BME280;37364;46.974;18.916;2022-07-31T07:26:22;155602.22;;;20.80;77.41
51287;BME280;37364;46.974;18.916;2022-07-31T07:28:56;155649.13;;;20.98;76.00
51287;BME280;37364;46.974;18.916;2022-07-31T07:31:29;155655.63;;;21.01;76.48
51287;BME280;37364;46.974;18.916;2022-07-31T07:34:00;155732.56;;;21.31;76.11
51287;BME280;37364;46.974;18.916;2022-07-31T07:36:33;155681.69;;;21.11;74.78
51287;BME280;37364;46.974;18.916;2022-07-31T07:39:29;155783.47;;;21.51;74.87
51287;BME280;37364;46.974;18.916;2022-07-31T07:42:00;155666.03;;;21.05;76.05
51287;BME280;37364;46.974;18.916;2022-07-31T07:44:33;155548.72;;;20.59;78.00
51287;BME280;37364;46.974;18.916;2022-07-31T07:47:04;155533.09;;;20.52;78.80
51287;BME280;37364;46.974;18.916;2022-07-31T07:49:35;155655.63;;;21.01;77.56
51287;BME280;37364;46.974;18.916;2022-07-31T07:52:31;155741.69;;;21.35;76.04
51287;BME280;37364;46.974;18.916;2022-07-31T07:55:25;155911.28;;;22.01;74.46
51287;BME280;37364;46.974;18.916;2022-07-31T07:58:22;155968.66;;;22.24;71.80
51287;BME280;37364;46.974;18.916;2022-07-31T08:01:16;155932.16;;;22.09;72.08
51287;BME280;37364;46.974;18.916;2022-07-31T08:03:51;155924.31;;;22.06;72.97
51287;BME280;37364;46.974;18.916;2022-07-31T08:06:23;155938.66;;;22.12;70.05
51287;BME280;37364;46.974;18.916;2022-07-31T08:08:54;156187.97;;;23.10;69.48
51287;BME280;37364;46.974;18.916;2022-07-31T08:11:56;156160.53;;;22.99;66.96
51287;BME280;37364;46.974;18.916;2022-07-31T08:15:06;156202.34;;;23.16;65.55
51287;BME280;37364;46.974;18.916;2022-07-31T08:17:52;156143.53;;;22.93;68.08
51287;BME280;37364;46.974;18.916;2022-07-31T08:20:23;156193.19;;;23.12;66.92
51287;BME280;37364;46.974;18.916;2022-07-31T08:22:53;156167.06;;;23.02;66.86
51287;BME280;37364;46.974;18.916;2022-07-31T08:25:24;156191.91;;;23.12;65.92
51287;BME280;37364;46.974;18.916;2022-07-31T08:27:58;156058.72;;;22.59;67.41
51287;BME280;37364;46.974;18.916;2022-07-31T08:30:31;156240.16;;;23.30;64.17
51287;BME280;37364;46.974;18.916;2022-07-31T08:33:17;156287.19;;;23.49;64.09
51287;BME280;37364;46.974;18.916;2022-07-31T08:35:53;156074.38;;;22.65;66.98
51287;BME280;37364;46.974;18.916;2022-07-31T08:38:24;156044.38;;;22.54;67.11
51287;BME280;37364;46.974;18.916;2022-07-31T08:41:21;155933.44;;;22.10;67.55
51287;BME280;37364;46.974;18.916;2022-07-31T08:43:51;155913.88;;;22.02;68.99
51287;BME280;37364;46.974;18.916;2022-07-31T08:46:31;155913.88;;;22.02;69.57
51287;BME280;37364;46.974;18.916;2022-07-31T08:49:11;155778.25;;;21.49;70.31
51287;BME280;37364;46.974;18.916;2022-07-31T08:51:45;155793.88;;;21.55;70.63
51287;BME280;37364;46.974;18.916;2022-07-31T08:54:21;155834.31;;;21.71;70.26
51287;BME280;37364;46.974;18.916;2022-07-31T08:56:53;155879.94;;;21.89;69.11
51287;BME280;37364;46.974;18.916;2022-07-31T08:59:24;155804.31;;;21.59;68.94
51287;BME280;37364;46.974;18.916;2022-07-31T09:01:54;155842.16;;;21.74;70.13
51287;BME280;37364;46.974;18.916;2022-07-31T09:04:31;155814.75;;;21.63;69.97
51287;BME280;37364;46.974;18.916;2022-07-31T09:07:02;155972.63;;;22.25;67.74
51287;BME280;37364;46.974;18.916;2022-07-31T09:09:33;156011.78;;;22.41;67.41
51287;BME280;37364;46.974;18.916;2022-07-31T09:12:25;155906.03;;;21.99;66.83
51287;BME280;37364;46.974;18.916;2022-07-31T09:15:17;155873.44;;;21.86;68.70
51287;BME280;37364;46.974;18.916;2022-07-31T09:17:49;155887.78;;;21.92;67.57
51287;BME280;37364;46.974;18.916;2022-07-31T09:20:26;155911.28;;;22.01;66.63
51287;BME280;37364;46.974;18.916;2022-07-31T09:23:04;155889.09;;;21.92;66.32
51287;BME280;37364;46.974;18.916;2022-07-31T09:25:39;155893.00;;;21.94;65.42
51287;BME280;37364;46.974;18.916;2022-07-31T09:28:20;155998.72;;;22.36;65.19
51287;BME280;37364;46.974;18.916;2022-07-31T09:31:02;155958.22;;;22.20;64.73
51287;BME280;37364;46.974;18.916;2022-07-31T09:33:59;155902.16;;;21.98;64.52
51287;BME280;37364;46.974;18.916;2022-07-31T09:36:42;155851.25;;;21.78;66.51
51287;BME280;37364;46.974;18.916;2022-07-31T09:39:48;155908.66;;;22.00;65.32
51287;BME280;37364;46.974;18.916;2022-07-31T09:42:48;155838.22;;;21.72;66.49
51287;BME280;37364;46.974;18.916;2022-07-31T09:45:24;155664.75;;;21.04;67.38
51287;BME280;37364;46.974;18.916;2022-07-31T09:48:03;155713.00;;;21.23;66.59
51287;BME280;37364;46.974;18.916;2022-07-31T09:50:44;155638.69;;;20.94;66.88
51287;BME280;37364;46.974;18.916;2022-07-31T09:53:25;155664.75;;;21.04;67.86
51287;BME280;37364;46.974;18.916;2022-07-31T09:56:13;155634.78;;;20.92;67.29
51287;BME280;37364;46.974;18.916;2022-07-31T09:58:44;155595.66;;;20.77;66.40
51287;BME280;37364;46.974;18.916;2022-07-31T10:01:15;155646.50;;;20.97;66.62
51287;BME280;37364;46.974;18.916;2022-07-31T10:03:47;155608.72;;;20.82;66.67
51287;BME280;37364;46.974;18.916;2022-07-31T10:06:19;155561.75;;;20.64;66.68
51287;BME280;37364;46.974;18.916;2022-07-31T10:08:54;155572.19;;;20.68;66.97
51287;BME280;37364;46.974;18.916;2022-07-31T10:11:26;155595.66;;;20.77;67.09
51287;BME280;37364;46.974;18.916;2022-07-31T10:14:27;155587.88;;;20.74;66.65
51287;BME280;37364;46.974;18.916;2022-07-31T10:17:01;155814.75;;;21.63;65.88
51287;BME280;37364;46.974;18.916;2022-07-31T10:19:40;155929.50;;;22.08;63.69
51287;BME280;37364;46.974;18.916;2022-07-31T10:22:34;156057.44;;;22.59;62.23
51287;BME280;37364;46.974;18.916;2022-07-31T10:25:18;156216.72;;;23.21;59.68
51287;BME280;37364;46.974;18.916;2022-07-31T10:27:50;156270.25;;;23.42;58.64
51287;BME280;37364;46.974;18.916;2022-07-31T10:30:20;156403.44;;;23.95;58.83
51287;BME280;37364;46.974;18.916;2022-07-31T10:32:57;156258.47;;;23.38;60.05
51287;BME280;37364;46.974;18.916;2022-07-31T10:35:28;156304.13;;;23.56;59.30
51287;BME280;37364;46.974;18.916;2022-07-31T10:38:21;156143.53;;;22.93;60.22
51287;BME280;37364;46.974;18.916;2022-07-31T10:41:30;156274.13;;;23.44;59.74
51287;BME280;37364;46.974;18.916;2022-07-31T10:44:07;156430.88;;;24.05;57.34
51287;BME280;37364;46.974;18.916;2022-07-31T10:46:57;156275.47;;;23.44;57.51
51287;BME280;37364;46.974;18.916;2022-07-31T10:49:48;156216.72;;;23.21;57.53
51287;BME280;37364;46.974;18.916;2022-07-31T10:52:27;156391.69;;;23.90;57.71
51287;BME280;37364;46.974;18.916;2022-07-31T10:55:18;156513.13;;;24.38;56.00
51287;BME280;37364;46.974;18.916;2022-07-31T10:58:14;156317.22;;;23.61;58.70
51287;BME280;37364;46.974;18.916;2022-07-31T11:01:04;156203.63;;;23.16;59.72
51287;BME280;37364;46.974;18.916;2022-07-31T11:03:46;156156.63;;;22.98;59.93
51287;BME280;37364;46.974;18.916;2022-07-31T11:06:20;156274.13;;;23.44;57.96
51287;BME280;37364;46.974;18.916;2022-07-31T11:09:21;156218.00;;;23.22;59.55
51287;BME280;37364;46.974;18.916;2022-07-31T11:12:16;156279.34;;;23.46;58.75
51287;BME280;37364;46.974;18.916;2022-07-31T11:15:04;156088.75;;;22.71;58.20
51287;BME280;37364;46.974;18.916;2022-07-31T11:18:11;156057.44;;;22.59;59.08
51287;BME280;37364;46.974;18.916;2022-07-31T11:21:04;156060.03;;;22.60;59.72
51287;BME280;37364;46.974;18.916;2022-07-31T11:23:54;156067.88;;;22.63;58.77
51287;BME280;37364;46.974;18.916;2022-07-31T11:26:32;155953.00;;;22.18;59.42
51287;BME280;37364;46.974;18.916;2022-07-31T11:29:08;156108.31;;;22.79;59.26
51287;BME280;37364;46.974;18.916;2022-07-31T11:32:11;156153.97;;;22.97;57.39
51287;BME280;37364;46.974;18.916;2022-07-31T11:34:54;156088.75;;;22.71;57.33
51287;BME280;37364;46.974;18.916;2022-07-31T11:37:26;156214.06;;;23.20;56.37
51287;BME280;37364;46.974;18.916;2022-07-31T11:40:12;156237.56;;;23.29;52.68
51287;BME280;37364;46.974;18.916;2022-07-31T11:42:43;156390.41;;;23.90;50.42
51287;BME280;37364;46.974;18.916;2022-07-31T11:45:45;156187.97;;;23.10;50.35
51287;BME280;37364;46.974;18.916;2022-07-31T11:48:22;156291.13;;;23.51;50.85
51287;BME280;37364;46.974;18.916;2022-07-31T11:50:54;156331.59;;;23.66;51.44
51287;BME280;37364;46.974;18.916;2022-07-31T11:53:25;156254.53;;;23.36;51.68
51287;BME280;37364;46.974;18.916;2022-07-31T11:55:57;156251.94;;;23.35;51.95
51287;BME280;37364;46.974;18.916;2022-07-31T11:58:29;156142.25;;;22.92;53.40
51287;BME280;37364;46.974;18.916;2022-07-31T12:01:01;156105.72;;;22.78;54.44
51287;BME280;37364;46.974;18.916;2022-07-31T12:03:37;155988.28;;;22.31;52.95
51287;BME280;37364;46.974;18.916;2022-07-31T12:06:10;155904.72;;;21.99;52.41
51287;BME280;37364;46.974;18.916;2022-07-31T12:08:41;155960.81;;;22.21;52.43
51287;BME280;37364;46.974;18.916;2022-07-31T12:11:13;156024.78;;;22.46;52.82
51287;BME280;37364;46.974;18.916;2022-07-31T12:13:45;156047.00;;;22.55;54.45
51287;BME280;37364;46.974;18.916;2022-07-31T12:16:17;155989.56;;;22.32;54.53
51287;BME280;37364;46.974;18.916;2022-07-31T12:18:52;155979.13;;;22.28;55.43
51287;BME280;37364;46.974;18.916;2022-07-31T12:21:29;156071.78;;;22.64;54.38
51287;BME280;37364;46.974;18.916;2022-07-31T12:24:01;156206.28;;;23.17;52.09
51287;BME280;37364;46.974;18.916;2022-07-31T12:26:32;156147.47;;;22.94;50.17
51287;BME280;37364;46.974;18.916;2022-07-31T12:29:04;156267.59;;;23.41;50.79
51287;BME280;37364;46.974;18.916;2022-07-31T12:31:43;156224.50;;;23.24;51.26
51287;BME280;37364;46.974;18.916;2022-07-31T12:34:29;156176.25;;;23.05;51.00
51287;BME280;37364;46.974;18.916;2022-07-31T12:37:00;156361.66;;;23.78;49.24
51287;BME280;37364;46.974;18.916;2022-07-31T12:39:34;156169.69;;;23.03;50.86
51287;BME280;37364;46.974;18.916;2022-07-31T12:42:25;156153.97;;;22.97;51.51
51287;BME280;37364;46.974;18.916;2022-07-31T12:45:03;156088.75;;;22.71;51.88
51287;BME280;37364;46.974;18.916;2022-07-31T12:47:46;156199.72;;;23.15;52.04
51287;BME280;37364;46.974;18.916;2022-07-31T12:50:21;156258.47;;;23.38;51.57
51287;BME280;37364;46.974;18.916;2022-07-31T12:52:52;156373.41;;;23.83;51.64
51287;BME280;37364;46.974;18.916;2022-07-31T12:55:23;156437.41;;;24.08;50.23
51287;BME280;37364;46.974;18.916;2022-07-31T12:57:55;156233.66;;;23.28;51.43
51287;BME280;37364;46.974;18.916;2022-07-31T13:00:27;156241.50;;;23.31;51.77
51287;BME280;37364;46.974;18.916;2022-07-31T13:03:04;156186.69;;;23.09;53.64
51287;BME280;37364;46.974;18.916;2022-07-31T13:05:38;156358.97;;;23.77;53.42
51287;BME280;37364;46.974;18.916;2022-07-31T13:08:08;156314.59;;;23.60;51.95
51287;BME280;37364;46.974;18.916;2022-07-31T13:10:39;156272.81;;;23.43;51.08
51287;BME280;37364;46.974;18.916;2022-07-31T13:13:10;156189.28;;;23.10;51.81
51287;BME280;37364;46.974;18.916;2022-07-31T13:15:41;156214.06;;;23.20;51.34
51287;BME280;37364;46.974;18.916;2022-07-31T13:18:15;156138.34;;;22.90;50.70
51287;BME280;37364;46.974;18.916;2022-07-31T13:20:48;156191.91;;;23.12;51.43
51287;BME280;37364;46.974;18.916;2022-07-31T13:23:18;156308.06;;;23.57;50.86
51287;BME280;37364;46.974;18.916;2022-07-31T13:25:51;156153.97;;;22.97;52.87
51287;BME280;37364;46.974;18.916;2022-07-31T13:28:23;156007.84;;;22.39;53.35